^^
Station Historical Data
Daily Summary for January 8, 2018 Units:  Both    English   Metric
« Previous Day
Next Day »
Daily Weekly Monthly Yearly Custom
  High: Low: Average:
Temperature: TemperatureF °F /  -17.8 °C 59.0 °F /  15 °C 76.5 °F /  24.7 °C
Dew Point: DewpointF °F /  -17.8 °C 26.1 °F /  -3.3 °C 39.2 °F /  4 °C
Humidity: Humidity% 9% 31%
Wind Speed: WindSpeedMPHmph /  0km/h - 1.9mph /  3.1km/h
Wind Gust: WindSpeedGustMPHmph /  0km/h - -
Wind- - SW
Pressure: PressureIn in /  0 hPa 29.75 in /  1007.3 hPa -
Precipitation: 0.00 in /  0 mm    
Historical Graphs
 
 
Tabular Data for January 8, 2018
Time Temperature Dew Point Pressure Wind Wind Speed Wind Gust Humidity Rainfall Rate (Hourly) solar Conditions
TemperatureF °F /  -17.8 °C DewpointF °F /  -17.8 °C PressureInin /  0hPa Calm     Humidity% HourlyPrecipInin /  0mm SolarRadiationWatts/m^2 W/m2 Conditions
00:04 67.6 °F /  19.8 °C 45.0 °F /  7.2 °C 30.16in /  1021.2hPa Calm     44% 0.00in /  0mm 0.0 W/m2
00:14 67.1 °F /  19.5 °C 44.4 °F /  6.9 °C 30.16in /  1021.2hPa Calm     44% 0.00in /  0mm 0.0 W/m2
00:20 66.7 °F /  19.3 °C 44.8 °F /  7.1 °C 30.16in /  1021.2hPa Calm     45% 0.00in /  0mm 0.0 W/m2
00:25 66.6 °F /  19.2 °C 45.1 °F /  7.3 °C 30.16in /  1021.2hPa Calm     46% 0.00in /  0mm 0.0 W/m2
00:30 66.2 °F /  19 °C 44.8 °F /  7.1 °C 30.16in /  1021.2hPa Calm     46% 0.00in /  0mm 0.0 W/m2
00:36 65.8 °F /  18.8 °C 45.7 °F /  7.6 °C 30.16in /  1021.2hPa Calm     48% 0.00in /  0mm 0.0 W/m2
00:43 65.5 °F /  18.6 °C 45.3 °F /  7.4 °C 30.16in /  1021.2hPa Calm     48% 0.00in /  0mm 0.0 W/m2
00:49 65.1 °F /  18.4 °C 45.0 °F /  7.2 °C 30.16in /  1021.2hPa Calm     48% 0.00in /  0mm 0.0 W/m2
00:54 64.9 °F /  18.3 °C 45.3 °F /  7.4 °C 30.16in /  1021.2hPa Calm     49% 0.00in /  0mm 0.0 W/m2
01:00 64.6 °F /  18.1 °C 45.0 °F /  7.2 °C 30.16in /  1021.2hPa Calm     49% 0.00in /  0mm 0.0 W/m2
01:07 64.0 °F /  17.8 °C 45.0 °F /  7.2 °C 30.16in /  1021.2hPa Calm     50% 0.00in /  0mm 0.0 W/m2
01:16 63.9 °F /  17.7 °C 44.8 °F /  7.1 °C 30.16in /  1021.2hPa Calm     50% 0.00in /  0mm 0.0 W/m2
01:24 63.7 °F /  17.6 °C 45.1 °F /  7.3 °C 30.15in /  1020.9hPa Calm     51% 0.00in /  0mm 0.0 W/m2
01:26 63.7 °F /  17.6 °C 45.1 °F /  7.3 °C 30.15in /  1020.9hPa Calm     51% 0.00in /  0mm 0.0 W/m2
01:30 63.5 °F /  17.5 °C 44.6 °F /  7 °C 30.15in /  1020.9hPa Calm     50% 0.00in /  0mm 0.0 W/m2
01:36 63.3 °F /  17.4 °C 45.0 °F /  7.2 °C 30.15in /  1020.9hPa Calm     51% 0.00in /  0mm 0.0 W/m2
01:42 63.1 °F /  17.3 °C 44.8 °F /  7.1 °C 30.15in /  1020.9hPa Calm     51% 0.00in /  0mm 0.0 W/m2
01:48 63.1 °F /  17.3 °C 44.8 °F /  7.1 °C 30.15in /  1020.9hPa Calm     51% 0.00in /  0mm 0.0 W/m2
01:52 63.0 °F /  17.2 °C 44.6 °F /  7 °C 30.15in /  1020.9hPa Calm     51% 0.00in /  0mm 0.0 W/m2
01:54 63.0 °F /  17.2 °C 44.6 °F /  7 °C 30.15in /  1020.9hPa Calm     51% 0.00in /  0mm 0.0 W/m2
01:59 63.0 °F /  17.2 °C 45.1 °F /  7.3 °C 30.15in /  1020.9hPa Calm     52% 0.00in /  0mm 0.0 W/m2
02:04 62.8 °F /  17.1 °C 44.4 °F /  6.9 °C 30.15in /  1020.9hPa Calm     51% 0.00in /  0mm 0.0 W/m2
02:09 62.6 °F /  17 °C 44.8 °F /  7.1 °C 30.15in /  1020.9hPa Calm     52% 0.00in /  0mm 0.0 W/m2
02:17 62.4 °F /  16.9 °C 44.6 °F /  7 °C 30.15in /  1020.9hPa Calm     52% 0.00in /  0mm 0.0 W/m2
02:23 62.4 °F /  16.9 °C 44.6 °F /  7 °C 30.15in /  1020.9hPa Calm     52% 0.00in /  0mm 0.0 W/m2
02:28 62.2 °F /  16.8 °C 44.4 °F /  6.9 °C 30.15in /  1020.9hPa Calm     52% 0.00in /  0mm 0.0 W/m2
02:34 62.2 °F /  16.8 °C 44.4 °F /  6.9 °C 30.15in /  1020.9hPa Calm     52% 0.00in /  0mm 0.0 W/m2
02:38 62.1 °F /  16.7 °C 44.8 °F /  7.1 °C 30.15in /  1020.9hPa Calm     53% 0.00in /  0mm 0.0 W/m2
02:39 62.1 °F /  16.7 °C 44.8 °F /  7.1 °C 30.15in /  1020.9hPa Calm     53% 0.00in /  0mm 0.0 W/m2
02:44 62.1 °F /  16.7 °C 44.8 °F /  7.1 °C 30.15in /  1020.9hPa Calm     53% 0.00in /  0mm 0.0 W/m2
02:49 61.9 °F /  16.6 °C 45.1 °F /  7.3 °C 30.14in /  1020.5hPa Calm     54% 0.00in /  0mm 0.0 W/m2
02:57 61.5 °F /  16.4 °C 44.8 °F /  7.1 °C 30.15in /  1020.9hPa Calm     54% 0.00in /  0mm 0.0 W/m2
03:02 61.5 °F /  16.4 °C 44.2 °F /  6.8 °C 30.14in /  1020.5hPa Calm     53% 0.00in /  0mm 0.0 W/m2
03:08 61.5 °F /  16.4 °C 44.8 °F /  7.1 °C 30.15in /  1020.9hPa Calm     54% 0.00in /  0mm 0.0 W/m2
03:13 61.3 °F /  16.3 °C 44.6 °F /  7 °C 30.14in /  1020.5hPa Calm     54% 0.00in /  0mm 0.0 W/m2
03:19 61.3 °F /  16.3 °C 44.1 °F /  6.7 °C 30.14in /  1020.5hPa Calm   1.0mph /  1.6km/h 53% 0.00in /  0mm 0.0 W/m2
03:24 61.3 °F /  16.3 °C 44.1 °F /  6.7 °C 30.14in /  1020.5hPa Calm     53% 0.00in /  0mm 0.0 W/m2
03:30 61.3 °F /  16.3 °C 43.5 °F /  6.4 °C 30.14in /  1020.5hPa Calm   1.0mph /  1.6km/h 52% 0.00in /  0mm 0.0 W/m2
03:35 61.3 °F /  16.3 °C 44.1 °F /  6.7 °C 30.14in /  1020.5hPa ESE 0.9mph /  1.4km/h 1.0mph /  1.6km/h 53% 0.00in /  0mm 0.0 W/m2
03:44 61.3 °F /  16.3 °C 44.6 °F /  7 °C 30.14in /  1020.5hPa SSE 0.9mph /  1.4km/h 1.0mph /  1.6km/h 54% 0.00in /  0mm 0.0 W/m2
03:45 61.3 °F /  16.3 °C 44.6 °F /  7 °C 30.14in /  1020.5hPa Calm   1.0mph /  1.6km/h 54% 0.00in /  0mm 0.0 W/m2
03:51 61.2 °F /  16.2 °C 44.4 °F /  6.9 °C 30.14in /  1020.5hPa Calm   2.0mph /  3.2km/h 54% 0.00in /  0mm 0.0 W/m2
03:54 61.2 °F /  16.2 °C 44.4 °F /  6.9 °C 30.14in /  1020.5hPa Calm     54% 0.00in /  0mm 0.0 W/m2
03:57 61.2 °F /  16.2 °C 44.4 °F /  6.9 °C 30.14in /  1020.5hPa Calm     54% 0.00in /  0mm 0.0 W/m2
04:00 61.0 °F /  16.1 °C 44.8 °F /  7.1 °C 30.14in /  1020.5hPa Calm   1.0mph /  1.6km/h 55% 0.00in /  0mm 0.0 W/m2
04:05 60.8 °F /  16 °C 44.6 °F /  7 °C 30.14in /  1020.5hPa Calm   1.0mph /  1.6km/h 55% 0.00in /  0mm 0.0 W/m2
04:10 60.6 °F /  15.9 °C 44.4 °F /  6.9 °C 30.14in /  1020.5hPa Calm     55% 0.00in /  0mm 0.0 W/m2
04:12 60.6 °F /  15.9 °C 44.8 °F /  7.1 °C 30.15in /  1020.9hPa Calm   1.0mph /  1.6km/h 56% 0.00in /  0mm 0.0 W/m2
04:17 60.4 °F /  15.8 °C 43.7 °F /  6.5 °C 30.15in /  1020.9hPa Calm   1.0mph /  1.6km/h 54% 0.00in /  0mm 0.0 W/m2
04:20 60.4 °F /  15.8 °C 43.7 °F /  6.5 °C 30.15in /  1020.9hPa Calm   1.0mph /  1.6km/h 54% 0.00in /  0mm 0.0 W/m2
04:23 60.4 °F /  15.8 °C 43.7 °F /  6.5 °C 30.15in /  1020.9hPa Calm   2.0mph /  3.2km/h 54% 0.00in /  0mm 0.0 W/m2
04:25 60.4 °F /  15.8 °C 43.7 °F /  6.5 °C 30.15in /  1020.9hPa Calm   1.0mph /  1.6km/h 54% 0.00in /  0mm 0.0 W/m2
04:28 60.4 °F /  15.8 °C 43.7 °F /  6.5 °C 30.15in /  1020.9hPa Calm   1.0mph /  1.6km/h 54% 0.00in /  0mm 0.0 W/m2
04:34 60.4 °F /  15.8 °C 43.7 °F /  6.5 °C 30.15in /  1020.9hPa Calm   1.0mph /  1.6km/h 54% 0.00in /  0mm 0.0 W/m2
04:35 60.4 °F /  15.8 °C 43.7 °F /  6.5 °C 30.15in /  1020.9hPa Calm   1.0mph /  1.6km/h 54% 0.00in /  0mm 0.0 W/m2
04:40 60.4 °F /  15.8 °C 43.7 °F /  6.5 °C 30.15in /  1020.9hPa Calm   1.0mph /  1.6km/h 54% 0.00in /  0mm 0.0 W/m2
04:46 60.4 °F /  15.8 °C 43.7 °F /  6.5 °C 30.15in /  1020.9hPa Calm     54% 0.00in /  0mm 0.0 W/m2
04:53 60.4 °F /  15.8 °C 44.6 °F /  7 °C 30.15in /  1020.9hPa Calm   1.0mph /  1.6km/h 56% 0.00in /  0mm 0.0 W/m2
04:56 60.4 °F /  15.8 °C 44.6 °F /  7 °C 30.16in /  1021.2hPa Calm     56% 0.00in /  0mm 0.0 W/m2
05:00 60.3 °F /  15.7 °C 44.4 °F /  6.9 °C 30.16in /  1021.2hPa Calm     56% 0.00in /  0mm 0.0 W/m2
05:01 60.3 °F /  15.7 °C 44.4 °F /  6.9 °C 30.16in /  1021.2hPa Calm     56% 0.00in /  0mm 0.0 W/m2
05:06 60.1 °F /  15.6 °C 44.4 °F /  6.9 °C 30.16in /  1021.2hPa Calm     56% 0.00in /  0mm 0.0 W/m2
05:11 60.1 °F /  15.6 °C 44.8 °F /  7.1 °C 30.16in /  1021.2hPa Calm   1.0mph /  1.6km/h 57% 0.00in /  0mm 0.0 W/m2
05:13 59.9 °F /  15.5 °C 44.6 °F /  7 °C 30.17in /  1021.6hPa Calm     57% 0.00in /  0mm 0.0 W/m2
05:16 59.7 °F /  15.4 °C 44.4 °F /  6.9 °C 30.16in /  1021.2hPa Calm     57% 0.00in /  0mm 0.0 W/m2
05:21 59.5 °F /  15.3 °C 43.9 °F /  6.6 °C 30.17in /  1021.6hPa Calm   2.0mph /  3.2km/h 56% 0.00in /  0mm 0.0 W/m2
05:26 59.5 °F /  15.3 °C 43.9 °F /  6.6 °C 30.17in /  1021.6hPa Calm     56% 0.00in /  0mm 0.0 W/m2
05:32 59.5 °F /  15.3 °C 44.2 °F /  6.8 °C 30.17in /  1021.6hPa Calm     57% 0.00in /  0mm 0.0 W/m2
05:37 59.4 °F /  15.2 °C 44.1 °F /  6.7 °C 30.17in /  1021.6hPa Calm   2.0mph /  3.2km/h 57% 0.00in /  0mm 0.0 W/m2
05:42 59.4 °F /  15.2 °C 43.7 °F /  6.5 °C 30.18in /  1021.9hPa Calm   3.0mph /  4.8km/h 56% 0.00in /  0mm 0.0 W/m2
05:47 59.4 °F /  15.2 °C 43.7 °F /  6.5 °C 30.18in /  1021.9hPa Calm   2.0mph /  3.2km/h 56% 0.00in /  0mm 0.0 W/m2
05:52 59.4 °F /  15.2 °C 43.7 °F /  6.5 °C 30.18in /  1021.9hPa Calm     56% 0.00in /  0mm 0.0 W/m2
05:57 59.4 °F /  15.2 °C 43.2 °F /  6.2 °C 30.18in /  1021.9hPa Calm   2.0mph /  3.2km/h 55% 0.00in /  0mm 0.0 W/m2
06:02 59.5 °F /  15.3 °C 43.9 °F /  6.6 °C 30.19in /  1022.2hPa Calm   1.0mph /  1.6km/h 56% 0.00in /  0mm 0.0 W/m2
06:07 59.5 °F /  15.3 °C 43.9 °F /  6.6 °C 30.19in /  1022.2hPa Calm     56% 0.00in /  0mm 0.0 W/m2
06:13 59.4 °F /  15.2 °C 44.1 °F /  6.7 °C 30.19in /  1022.2hPa Calm     57% 0.00in /  0mm 0.0 W/m2
06:18 59.4 °F /  15.2 °C 44.1 °F /  6.7 °C 30.19in /  1022.2hPa Calm     57% 0.00in /  0mm 0.0 W/m2
06:23 59.2 °F /  15.1 °C 43.9 °F /  6.6 °C 30.20in /  1022.6hPa Calm     57% 0.00in /  0mm 7.0 W/m2
06:28 59.2 °F /  15.1 °C 43.9 °F /  6.6 °C 30.20in /  1022.6hPa Calm   1.0mph /  1.6km/h 57% 0.00in /  0mm 9.0 W/m2
06:33 59.0 °F /  15 °C 43.7 °F /  6.5 °C 30.20in /  1022.6hPa Calm   1.0mph /  1.6km/h 57% 0.00in /  0mm 11.0 W/m2
06:38 59.0 °F /  15 °C 43.7 °F /  6.5 °C 30.20in /  1022.6hPa Calm     57% 0.00in /  0mm 12.0 W/m2
06:43 59.0 °F /  15 °C 43.7 °F /  6.5 °C 30.21in /  1022.9hPa Calm   1.0mph /  1.6km/h 57% 0.00in /  0mm 14.0 W/m2
06:53 59.2 °F /  15.1 °C 44.8 °F /  7.1 °C 30.21in /  1022.9hPa SE 0.9mph /  1.4km/h 1.0mph /  1.6km/h 59% 0.00in /  0mm 18.0 W/m2
06:59 59.2 °F /  15.1 °C 45.3 °F /  7.4 °C 30.21in /  1022.9hPa Calm     60% 0.00in /  0mm 19.0 W/m2
07:04 59.4 °F /  15.2 °C 44.6 °F /  7 °C 30.21in /  1022.9hPa Calm   1.0mph /  1.6km/h 58% 0.00in /  0mm 21.0 W/m2
07:09 59.5 °F /  15.3 °C 45.1 °F /  7.3 °C 30.22in /  1023.2hPa Calm     59% 0.00in /  0mm 23.0 W/m2
07:14 59.5 °F /  15.3 °C 45.1 °F /  7.3 °C 30.22in /  1023.2hPa Calm     59% 0.00in /  0mm 25.0 W/m2
07:19 59.7 °F /  15.4 °C 46.2 °F /  7.9 °C 30.22in /  1023.2hPa Calm     61% 0.00in /  0mm 26.0 W/m2
07:24 60.1 °F /  15.6 °C 45.7 °F /  7.6 °C 30.22in /  1023.2hPa Calm     59% 0.00in /  0mm 26.0 W/m2
07:29 60.4 °F /  15.8 °C 45.7 °F /  7.6 °C 30.22in /  1023.2hPa Calm     58% 0.00in /  0mm 28.0 W/m2
07:34 61.0 °F /  16.1 °C 45.1 °F /  7.3 °C 30.22in /  1023.2hPa Calm   1.0mph /  1.6km/h 56% 0.00in /  0mm 28.0 W/m2
07:40 61.3 °F /  16.3 °C 46.0 °F /  7.8 °C 30.22in /  1023.2hPa SE 0.9mph /  1.4km/h 1.0mph /  1.6km/h 57% 0.00in /  0mm 30.0 W/m2
07:45 61.9 °F /  16.6 °C 46.0 °F /  7.8 °C 30.22in /  1023.2hPa Calm     56% 0.00in /  0mm 54.0 W/m2
07:50 62.4 °F /  16.9 °C 45.5 °F /  7.5 °C 30.22in /  1023.2hPa Calm     54% 0.00in /  0mm 200.0 W/m2
07:55 63.1 °F /  17.3 °C 45.1 °F /  7.3 °C 30.22in /  1023.2hPa Calm     52% 0.00in /  0mm 290.0 W/m2
08:00 64.2 °F /  17.9 °C 45.7 °F /  7.6 °C 30.22in /  1023.2hPa Calm     51% 0.00in /  0mm 366.0 W/m2
08:05 65.7 °F /  18.7 °C 45.5 °F /  7.5 °C 30.22in /  1023.2hPa Calm     48% 0.00in /  0mm 387.0 W/m2
08:10 66.9 °F /  19.4 °C 46.6 °F /  8.1 °C 30.22in /  1023.2hPa Calm     48% 0.00in /  0mm 406.0 W/m2
08:15 68.0 °F /  20 °C 45.3 °F /  7.4 °C 30.22in /  1023.2hPa Calm     44% 0.00in /  0mm 429.0 W/m2
08:21 69.3 °F /  20.7 °C 44.6 °F /  7 °C 30.22in /  1023.2hPa Calm   1.0mph /  1.6km/h 41% 0.00in /  0mm 450.0 W/m2
08:26 70.5 °F /  21.4 °C 45.0 °F /  7.2 °C 30.23in /  1023.6hPa Calm     40% 0.00in /  0mm 469.0 W/m2
08:31 71.6 °F /  22 °C 44.6 °F /  7 °C 30.22in /  1023.2hPa Calm     38% 0.00in /  0mm 487.0 W/m2
08:36 72.5 °F /  22.5 °C 44.1 °F /  6.7 °C 30.23in /  1023.6hPa Calm     36% 0.00in /  0mm 508.0 W/m2
08:41 73.2 °F /  22.9 °C 45.3 °F /  7.4 °C 30.23in /  1023.6hPa Calm     37% 0.00in /  0mm 527.0 W/m2
08:46 74.5 °F /  23.6 °C 44.2 °F /  6.8 °C 30.23in /  1023.6hPa Calm     34% 0.00in /  0mm 545.0 W/m2
08:51 75.2 °F /  24 °C 45.0 °F /  7.2 °C 30.23in /  1023.6hPa Calm     34% 0.00in /  0mm 566.0 W/m2
08:56 75.9 °F /  24.4 °C 44.8 °F /  7.1 °C 30.23in /  1023.6hPa Calm   1.0mph /  1.6km/h 33% 0.00in /  0mm 585.0 W/m2
09:02 76.5 °F /  24.7 °C 44.4 °F /  6.9 °C 30.23in /  1023.6hPa Calm   1.0mph /  1.6km/h 32% 0.00in /  0mm 603.0 W/m2
09:12 77.5 °F /  25.3 °C 42.8 °F /  6 °C 30.23in /  1023.6hPa Calm     29% 0.00in /  0mm 640.0 W/m2
09:17 78.3 °F /  25.7 °C 43.3 °F /  6.3 °C 30.23in /  1023.6hPa Calm   1.0mph /  1.6km/h 29% 0.00in /  0mm 656.0 W/m2
09:22 78.6 °F /  25.9 °C 43.7 °F /  6.5 °C 30.23in /  1023.6hPa Calm   2.0mph /  3.2km/h 29% 0.00in /  0mm 677.0 W/m2
09:27 79.0 °F /  26.1 °C 43.2 °F /  6.2 °C 30.23in /  1023.6hPa NW 0.9mph /  1.4km/h 1.0mph /  1.6km/h 28% 0.00in /  0mm 694.0 W/m2
09:32 79.3 °F /  26.3 °C 42.4 °F /  5.8 °C 30.22in /  1023.2hPa Calm   1.0mph /  1.6km/h 27% 0.00in /  0mm 712.0 W/m2
09:37 79.7 °F /  26.5 °C 41.7 °F /  5.4 °C 30.22in /  1023.2hPa Calm   1.0mph /  1.6km/h 26% 0.00in /  0mm 729.0 W/m2
09:43 80.6 °F /  27 °C 40.5 °F /  4.7 °C 30.22in /  1023.2hPa NE 4.0mph /  6.4km/h 6.0mph /  9.7km/h 24% 0.00in /  0mm 747.0 W/m2
09:48 81.3 °F /  27.4 °C 41.0 °F /  5 °C 30.22in /  1023.2hPa Calm   3.0mph /  4.8km/h 24% 0.00in /  0mm 761.0 W/m2
09:53 82.2 °F /  27.9 °C 40.8 °F /  4.9 °C 30.22in /  1023.2hPa Calm   3.0mph /  4.8km/h 23% 0.00in /  0mm 775.0 W/m2
09:58 82.9 °F /  28.3 °C 41.4 °F /  5.2 °C 30.22in /  1023.2hPa SE 4.0mph /  6.4km/h 5.0mph /  8km/h 23% 0.00in /  0mm 795.0 W/m2
10:03 83.1 °F /  28.4 °C 39.2 °F /  4 °C 30.22in /  1023.2hPa Calm   3.0mph /  4.8km/h 21% 0.00in /  0mm 809.0 W/m2
10:08 83.5 °F /  28.6 °C 39.4 °F /  4.1 °C 30.22in /  1023.2hPa ESE 2.0mph /  3.2km/h 3.0mph /  4.8km/h 21% 0.00in /  0mm 819.0 W/m2
10:13 84.0 °F /  28.9 °C 39.9 °F /  4.4 °C 30.22in /  1023.2hPa South 2.9mph /  4.7km/h 5.0mph /  8km/h 21% 0.00in /  0mm 838.0 W/m2
10:18 84.2 °F /  29 °C 36.1 °F /  2.3 °C 30.22in /  1023.2hPa Calm   8.0mph /  12.9km/h 18% 0.00in /  0mm 851.0 W/m2
10:23 84.4 °F /  29.1 °C 37.6 °F /  3.1 °C 30.22in /  1023.2hPa SSW 2.0mph /  3.2km/h 4.0mph /  6.4km/h 19% 0.00in /  0mm 867.0 W/m2
10:29 84.2 °F /  29 °C 37.4 °F /  3 °C 30.22in /  1023.2hPa West 4.0mph /  6.4km/h 7.0mph /  11.3km/h 19% 0.00in /  0mm 874.0 W/m2
10:34 83.7 °F /  28.7 °C 38.3 °F /  3.5 °C 30.22in /  1023.2hPa West 0.9mph /  1.4km/h 3.0mph /  4.8km/h 20% 0.00in /  0mm 893.0 W/m2
10:39 84.0 °F /  28.9 °C 38.7 °F /  3.7 °C 30.22in /  1023.2hPa ESE 2.9mph /  4.7km/h 6.0mph /  9.7km/h 20% 0.00in /  0mm 905.0 W/m2
10:44 84.6 °F /  29.2 °C 39.0 °F /  3.9 °C 30.22in /  1023.2hPa ESE 2.9mph /  4.7km/h 7.0mph /  11.3km/h 20% 0.00in /  0mm 918.0 W/m2
10:49 85.1 °F /  29.5 °C 38.1 °F /  3.4 °C 30.21in /  1022.9hPa SSW 2.9mph /  4.7km/h 5.0mph /  8km/h 19% 0.00in /  0mm 930.0 W/m2
10:54 84.9 °F /  29.4 °C 40.6 °F /  4.8 °C 30.21in /  1022.9hPa WSW 2.9mph /  4.7km/h 3.0mph /  4.8km/h 21% 0.00in /  0mm 940.0 W/m2
10:55 84.9 °F /  29.4 °C 39.4 °F /  4.1 °C 30.21in /  1022.9hPa West 2.0mph /  3.2km/h 5.0mph /  8km/h 20% 0.00in /  0mm 944.0 W/m2
10:59 84.9 °F /  29.4 °C 39.4 °F /  4.1 °C 30.21in /  1022.9hPa NNW 2.9mph /  4.7km/h 4.0mph /  6.4km/h 20% 0.00in /  0mm 951.0 W/m2
11:04 85.6 °F /  29.8 °C 37.2 °F /  2.9 °C 30.21in /  1022.9hPa NNW 2.9mph /  4.7km/h 6.0mph /  9.7km/h 18% 0.00in /  0mm 969.0 W/m2
11:09 86.2 °F /  30.1 °C 37.8 °F /  3.2 °C 30.21in /  1022.9hPa Calm   9.0mph /  14.5km/h 18% 0.00in /  0mm 969.0 W/m2
11:11 86.4 °F /  30.2 °C 37.9 °F /  3.3 °C 30.21in /  1022.9hPa Calm   4.0mph /  6.4km/h 18% 0.00in /  0mm 976.0 W/m2
11:14 86.5 °F /  30.3 °C 37.9 °F /  3.3 °C 30.21in /  1022.9hPa WNW 2.9mph /  4.7km/h 4.0mph /  6.4km/h 18% 0.00in /  0mm 984.0 W/m2
11:19 86.7 °F /  30.4 °C 36.7 °F /  2.6 °C 30.21in /  1022.9hPa NNE 4.9mph /  7.9km/h 7.0mph /  11.3km/h 17% 0.00in /  0mm 993.0 W/m2
11:21 86.7 °F /  30.4 °C 36.7 °F /  2.6 °C 30.21in /  1022.9hPa North 2.9mph /  4.7km/h 7.0mph /  11.3km/h 17% 0.00in /  0mm 993.0 W/m2
11:25 87.3 °F /  30.7 °C 37.2 °F /  2.9 °C 30.21in /  1022.9hPa NW 2.0mph /  3.2km/h 6.0mph /  9.7km/h 17% 0.00in /  0mm 1000.0 W/m2
11:31 87.4 °F /  30.8 °C 37.2 °F /  2.9 °C 30.21in /  1022.9hPa NW 4.0mph /  6.4km/h 5.0mph /  8km/h 17% 0.00in /  0mm 1011.0 W/m2
11:35 87.8 °F /  31 °C 36.0 °F /  2.2 °C 30.20in /  1022.6hPa ENE 0.9mph /  1.4km/h 4.0mph /  6.4km/h 16% 0.00in /  0mm 1021.0 W/m2
11:37 87.8 °F /  31 °C 37.6 °F /  3.1 °C 30.21in /  1022.9hPa SSW 2.9mph /  4.7km/h 3.0mph /  4.8km/h 17% 0.00in /  0mm 1028.0 W/m2
11:43 87.3 °F /  30.7 °C 35.6 °F /  2 °C 30.20in /  1022.6hPa SW 0.9mph /  1.4km/h 8.0mph /  12.9km/h 16% 0.00in /  0mm 1055.0 W/m2
11:50 87.1 °F /  30.6 °C 35.4 °F /  1.9 °C 30.20in /  1022.6hPa SSW 4.9mph /  7.9km/h 7.0mph /  11.3km/h 16% 0.00in /  0mm 1056.0 W/m2
11:55 86.9 °F /  30.5 °C 36.9 °F /  2.7 °C 30.20in /  1022.6hPa SSW 4.0mph /  6.4km/h 8.0mph /  12.9km/h 17% 0.00in /  0mm 1051.0 W/m2
12:01 86.5 °F /  30.3 °C 36.5 °F /  2.5 °C 30.20in /  1022.6hPa WSW 2.0mph /  3.2km/h 7.0mph /  11.3km/h 17% 0.00in /  0mm 1141.0 W/m2
12:06 86.5 °F /  30.3 °C 36.5 °F /  2.5 °C 30.20in /  1022.6hPa SE 4.9mph /  7.9km/h 8.0mph /  12.9km/h 17% 0.00in /  0mm 1199.0 W/m2
12:11 87.3 °F /  30.7 °C 37.2 °F /  2.9 °C 30.20in /  1022.6hPa East 2.9mph /  4.7km/h 5.0mph /  8km/h 17% 0.00in /  0mm 1248.0 W/m2
12:16 87.1 °F /  30.6 °C 37.0 °F /  2.8 °C 30.20in /  1022.6hPa SW 0.9mph /  1.4km/h 3.0mph /  4.8km/h 17% 0.00in /  0mm 234.0 W/m2
12:21 86.7 °F /  30.4 °C 36.7 °F /  2.6 °C 30.20in /  1022.6hPa Calm   4.0mph /  6.4km/h 17% 0.00in /  0mm 1202.0 W/m2
12:23 86.9 °F /  30.5 °C 36.9 °F /  2.7 °C 30.20in /  1022.6hPa South 2.0mph /  3.2km/h 2.0mph /  3.2km/h 17% 0.00in /  0mm 1211.0 W/m2
12:31 88.0 °F /  31.1 °C 37.8 °F /  3.2 °C 30.19in /  1022.2hPa NNE 2.0mph /  3.2km/h 9.0mph /  14.5km/h 17% 0.00in /  0mm 1190.0 W/m2
12:36 88.5 °F /  31.4 °C 38.1 °F /  3.4 °C 30.19in /  1022.2hPa NNW 2.9mph /  4.7km/h 7.0mph /  11.3km/h 17% 0.00in /  0mm 1232.0 W/m2
12:41 89.2 °F /  31.8 °C 40.3 °F /  4.6 °C 30.19in /  1022.2hPa NNW 4.0mph /  6.4km/h 8.0mph /  12.9km/h 18% 0.00in /  0mm 237.0 W/m2
12:46 89.2 °F /  31.8 °C 37.2 °F /  2.9 °C 30.19in /  1022.2hPa NE 4.0mph /  6.4km/h 11.0mph /  17.7km/h 16% 0.00in /  0mm 1202.0 W/m2
12:47 89.1 °F /  31.7 °C 38.7 °F /  3.7 °C 30.19in /  1022.2hPa NE 4.9mph /  7.9km/h 11.0mph /  17.7km/h 17% 0.00in /  0mm 1202.0 W/m2
12:52 89.1 °F /  31.7 °C 37.0 °F /  2.8 °C 30.18in /  1021.9hPa North 6.9mph /  11.1km/h 11.0mph /  17.7km/h 16% 0.00in /  0mm 1172.0 W/m2
13:01 90.1 °F /  32.3 °C 36.3 °F /  2.4 °C 30.18in /  1021.9hPa West 6.0mph /  9.7km/h 14.0mph /  22.5km/h 15% 0.00in /  0mm 1121.0 W/m2
13:02 90.3 °F /  32.4 °C 34.7 °F /  1.5 °C 30.18in /  1021.9hPa WNW 2.0mph /  3.2km/h 14.0mph /  22.5km/h 14% 0.00in /  0mm 1109.0 W/m2
13:07 91.0 °F /  32.8 °C 33.4 °F /  0.8 °C 30.18in /  1021.9hPa West 4.0mph /  6.4km/h 10.0mph /  16.1km/h 13% 0.00in /  0mm 1113.0 W/m2
13:12 90.3 °F /  32.4 °C 32.9 °F /  0.5 °C 30.19in /  1022.2hPa North 4.0mph /  6.4km/h 9.0mph /  14.5km/h 13% 0.00in /  0mm 1104.0 W/m2
13:17 90.3 °F /  32.4 °C 32.9 °F /  0.5 °C 30.19in /  1022.2hPa North 4.0mph /  6.4km/h 9.0mph /  14.5km/h 13% 0.00in /  0mm 1104.0 W/m2
13:22 91.0 °F /  32.8 °C 33.4 °F /  0.8 °C 30.18in /  1021.9hPa WNW 0.9mph /  1.4km/h 8.0mph /  12.9km/h 13% 0.00in /  0mm 1099.0 W/m2
13:27 91.8 °F /  33.2 °C 29.8 °F /  -1.2 °C 30.18in /  1021.9hPa North 0.9mph /  1.4km/h 8.0mph /  12.9km/h 11% 0.00in /  0mm 1095.0 W/m2
13:29 91.8 °F /  33.2 °C 29.8 °F /  -1.2 °C 30.18in /  1021.9hPa West 2.0mph /  3.2km/h 7.0mph /  11.3km/h 11% 0.00in /  0mm 1093.0 W/m2
13:32 91.9 °F /  33.3 °C 30.0 °F /  -1.1 °C 30.18in /  1021.9hPa WNW 2.0mph /  3.2km/h 8.0mph /  12.9km/h 11% 0.00in /  0mm 1102.0 W/m2
13:43 91.9 °F /  33.3 °C 32.0 °F /  0 °C 30.18in /  1021.9hPa NW 0.9mph /  1.4km/h 3.0mph /  4.8km/h 12% 0.00in /  0mm 1078.0 W/m2
13:48 91.6 °F /  33.1 °C 31.8 °F /  -0.1 °C 30.18in /  1021.9hPa Calm   8.0mph /  12.9km/h 12% 0.00in /  0mm 1069.0 W/m2
13:54 91.8 °F /  33.2 °C 32.0 °F /  0 °C 30.18in /  1021.9hPa SSW 4.9mph /  7.9km/h 12.0mph /  19.3km/h 12% 0.00in /  0mm 1065.0 W/m2
13:58 91.8 °F /  33.2 °C 29.8 °F /  -1.2 °C 30.18in /  1021.9hPa WSW 6.9mph /  11.1km/h 10.0mph /  16.1km/h 11% 0.00in /  0mm 1063.0 W/m2
14:03 91.0 °F /  32.8 °C 31.5 °F /  -0.3 °C 30.18in /  1021.9hPa SW 6.0mph /  9.7km/h 14.0mph /  22.5km/h 12% 0.00in /  0mm 1055.0 W/m2
14:06 91.0 °F /  32.8 °C 31.5 °F /  -0.3 °C 30.18in /  1021.9hPa WSW 4.9mph /  7.9km/h 10.0mph /  16.1km/h 12% 0.00in /  0mm 1056.0 W/m2
14:08 91.0 °F /  32.8 °C 31.5 °F /  -0.3 °C 30.18in /  1021.9hPa NNW 0.9mph /  1.4km/h 8.0mph /  12.9km/h 12% 0.00in /  0mm 1049.0 W/m2
14:13 91.0 °F /  32.8 °C 31.5 °F /  -0.3 °C 30.17in /  1021.6hPa SW 2.9mph /  4.7km/h 8.0mph /  12.9km/h 12% 0.00in /  0mm 1058.0 W/m2
14:20 91.9 °F /  33.3 °C 32.0 °F /  0 °C 30.17in /  1021.6hPa West 0.9mph /  1.4km/h 6.0mph /  9.7km/h 12% 0.00in /  0mm 1069.0 W/m2
14:26 92.7 °F /  33.7 °C 30.6 °F /  -0.8 °C 30.17in /  1021.6hPa WNW 4.9mph /  7.9km/h 7.0mph /  11.3km/h 11% 0.00in /  0mm 1028.0 W/m2
14:28 92.8 °F /  33.8 °C 30.6 °F /  -0.8 °C 30.17in /  1021.6hPa WSW 0.9mph /  1.4km/h 6.0mph /  9.7km/h 11% 0.00in /  0mm 1034.0 W/m2
14:34 92.8 °F /  33.8 °C 30.6 °F /  -0.8 °C 30.17in /  1021.6hPa WSW 8.9mph /  14.3km/h 14.0mph /  22.5km/h 11% 0.00in /  0mm 1025.0 W/m2
14:39 92.5 °F /  33.6 °C 32.5 °F /  0.3 °C 30.17in /  1021.6hPa WSW 4.0mph /  6.4km/h 9.0mph /  14.5km/h 12% 0.00in /  0mm 1007.0 W/m2
14:48 92.5 °F /  33.6 °C 30.4 °F /  -0.9 °C 30.17in /  1021.6hPa WSW 4.0mph /  6.4km/h 7.0mph /  11.3km/h 11% 0.00in /  0mm 984.0 W/m2
14:49 92.7 °F /  33.7 °C 30.6 °F /  -0.8 °C 30.17in /  1021.6hPa SW 4.0mph /  6.4km/h 10.0mph /  16.1km/h 11% 0.00in /  0mm 981.0 W/m2
14:54 92.1 °F /  33.4 °C 30.0 °F /  -1.1 °C 30.17in /  1021.6hPa West 2.9mph /  4.7km/h 8.0mph /  12.9km/h 11% 0.00in /  0mm 970.0 W/m2
14:59 91.9 °F /  33.3 °C 30.0 °F /  -1.1 °C 30.16in /  1021.2hPa SE 4.9mph /  7.9km/h 7.0mph /  11.3km/h 11% 0.00in /  0mm 956.0 W/m2
15:00 91.9 °F /  33.3 °C 30.0 °F /  -1.1 °C 30.16in /  1021.2hPa Calm   9.0mph /  14.5km/h 11% 0.00in /  0mm 951.0 W/m2
15:04 92.3 °F /  33.5 °C 30.2 °F /  -1 °C 30.17in /  1021.6hPa West 2.0mph /  3.2km/h 5.0mph /  8km/h 11% 0.00in /  0mm 939.0 W/m2
15:05 92.5 °F /  33.6 °C 30.4 °F /  -0.9 °C 30.16in /  1021.2hPa North 4.9mph /  7.9km/h 7.0mph /  11.3km/h 11% 0.00in /  0mm 932.0 W/m2
15:09 92.7 °F /  33.7 °C 28.2 °F /  -2.1 °C 30.16in /  1021.2hPa NW 4.0mph /  6.4km/h 5.0mph /  8km/h 10% 0.00in /  0mm 925.0 W/m2
15:15 93.0 °F /  33.9 °C 28.4 °F /  -2 °C 30.16in /  1021.2hPa Calm   9.0mph /  14.5km/h 10% 0.00in /  0mm 918.0 W/m2
15:18 93.4 °F /  34.1 °C 26.1 °F /  -3.3 °C 30.15in /  1020.9hPa Calm   9.0mph /  14.5km/h 9% 0.00in /  0mm 912.0 W/m2
15:20 93.6 °F /  34.2 °C 26.2 °F /  -3.2 °C 30.15in /  1020.9hPa NNW 4.0mph /  6.4km/h 14.0mph /  22.5km/h 9% 0.00in /  0mm 907.0 W/m2
15:25 93.7 °F /  34.3 °C 26.4 °F /  -3.1 °C 30.15in /  1020.9hPa West 6.0mph /  9.7km/h 8.0mph /  12.9km/h 9% 0.00in /  0mm 891.0 W/m2
15:30 93.4 °F /  34.1 °C 28.8 °F /  -1.8 °C 30.16in /  1021.2hPa WSW 8.9mph /  14.3km/h 12.0mph /  19.3km/h 10% 0.00in /  0mm 874.0 W/m2
15:35 93.4 °F /  34.1 °C 28.8 °F /  -1.8 °C 30.16in /  1021.2hPa SW 4.0mph /  6.4km/h 16.0mph /  25.7km/h 10% 0.00in /  0mm 867.0 W/m2
15:40 92.7 °F /  33.7 °C 30.6 °F /  -0.8 °C 30.16in /  1021.2hPa WNW 4.9mph /  7.9km/h 12.0mph /  19.3km/h 11% 0.00in /  0mm 849.0 W/m2
15:42 92.7 °F /  33.7 °C 30.6 °F /  -0.8 °C 30.16in /  1021.2hPa West 2.9mph /  4.7km/h 8.0mph /  12.9km/h 11% 0.00in /  0mm 842.0 W/m2
15:45 92.7 °F /  33.7 °C 30.6 °F /  -0.8 °C 30.15in /  1020.9hPa West 2.9mph /  4.7km/h 9.0mph /  14.5km/h 11% 0.00in /  0mm 835.0 W/m2
15:50 92.7 °F /  33.7 °C 28.2 °F /  -2.1 °C 30.15in /  1020.9hPa NNW 0.9mph /  1.4km/h 4.0mph /  6.4km/h 10% 0.00in /  0mm 816.0 W/m2
15:55 92.8 °F /  33.8 °C 30.6 °F /  -0.8 °C 30.15in /  1020.9hPa SW 2.9mph /  4.7km/h 5.0mph /  8km/h 11% 0.00in /  0mm 795.0 W/m2
16:01 92.7 °F /  33.7 °C 30.6 °F /  -0.8 °C 30.14in /  1020.5hPa WSW 8.1mph /  13km/h 8.1mph /  13km/h 11% 0.00in /  0mm 779.0 W/m2
16:06 92.8 °F /  33.8 °C 30.6 °F /  -0.8 °C 30.14in /  1020.5hPa NNW 2.0mph /  3.2km/h 4.0mph /  6.4km/h 11% 0.00in /  0mm 768.0 W/m2
16:11 93.6 °F /  34.2 °C 28.8 °F /  -1.8 °C 30.14in /  1020.5hPa NNW 4.9mph /  7.9km/h 7.0mph /  11.3km/h 10% 0.00in /  0mm 63.0 W/m2
16:16 93.4 °F /  34.1 °C 28.8 °F /  -1.8 °C 30.14in /  1020.5hPa WSW 2.0mph /  3.2km/h 8.0mph /  12.9km/h 10% 0.00in /  0mm 585.0 W/m2
16:21 92.5 °F /  33.6 °C 30.4 °F /  -0.9 °C 30.14in /  1020.5hPa WSW 4.0mph /  6.4km/h 14.0mph /  22.5km/h 11% 0.00in /  0mm 733.0 W/m2
16:26 91.8 °F /  33.2 °C 27.5 °F /  -2.5 °C 30.13in /  1020.2hPa WNW 2.9mph /  4.7km/h 6.0mph /  9.7km/h 10% 0.00in /  0mm 691.0 W/m2
16:31 91.8 °F /  33.2 °C 29.8 °F /  -1.2 °C 30.14in /  1020.5hPa SSW 2.0mph /  3.2km/h 12.0mph /  19.3km/h 11% 0.00in /  0mm 684.0 W/m2
16:36 92.1 °F /  33.4 °C 30.0 °F /  -1.1 °C 30.13in /  1020.2hPa SE 2.9mph /  4.7km/h 7.0mph /  11.3km/h 11% 0.00in /  0mm 664.0 W/m2
16:41 92.5 °F /  33.6 °C 28.0 °F /  -2.2 °C 30.13in /  1020.2hPa Calm   1.0mph /  1.6km/h 10% 0.00in /  0mm 606.0 W/m2
16:47 92.8 °F /  33.8 °C 32.7 °F /  0.4 °C 30.13in /  1020.2hPa Calm   13.0mph /  20.9km/h 12% 0.00in /  0mm 652.0 W/m2
16:57 93.6 °F /  34.2 °C 33.3 °F /  0.7 °C 30.13in /  1020.2hPa Calm   3.0mph /  4.8km/h 12% 0.00in /  0mm 615.0 W/m2
17:02 93.7 °F /  34.3 °C 31.3 °F /  -0.4 °C 30.13in /  1020.2hPa Calm   1.0mph /  1.6km/h 11% 0.00in /  0mm 594.0 W/m2
17:05 93.9 °F /  34.4 °C 31.5 °F /  -0.3 °C 30.12in /  1019.9hPa SSW 2.9mph /  4.7km/h 7.0mph /  11.3km/h 11% 0.00in /  0mm 582.0 W/m2
17:07 93.6 °F /  34.2 °C 28.8 °F /  -1.8 °C 30.12in /  1019.9hPa SSW 2.9mph /  4.7km/h 8.0mph /  12.9km/h 10% 0.00in /  0mm 577.0 W/m2
17:12 93.2 °F /  34 °C 30.9 °F /  -0.6 °C 30.12in /  1019.9hPa West 2.0mph /  3.2km/h 6.0mph /  9.7km/h 11% 0.00in /  0mm 473.0 W/m2
17:17 92.7 °F /  33.7 °C 32.7 °F /  0.4 °C 30.12in /  1019.9hPa Calm   2.0mph /  3.2km/h 12% 0.00in /  0mm 100.0 W/m2
17:22 91.9 °F /  33.3 °C 32.0 °F /  0 °C 30.12in /  1019.9hPa SW 0.9mph /  1.4km/h 11.0mph /  17.7km/h 12% 0.00in /  0mm 541.0 W/m2
17:27 91.0 °F /  32.8 °C 33.4 °F /  0.8 °C 30.12in /  1019.9hPa SW 2.9mph /  4.7km/h 7.0mph /  11.3km/h 13% 0.00in /  0mm 527.0 W/m2
17:32 91.0 °F /  32.8 °C 37.0 °F /  2.8 °C 30.12in /  1019.9hPa SW 2.9mph /  4.7km/h 6.0mph /  9.7km/h 15% 0.00in /  0mm 503.0 W/m2
17:37 91.0 °F /  32.8 °C 35.2 °F /  1.8 °C 30.12in /  1019.9hPa WSW 8.1mph /  13km/h 8.1mph /  13km/h 14% 0.00in /  0mm 457.0 W/m2
17:43 91.0 °F /  32.8 °C 35.2 °F /  1.8 °C 30.12in /  1019.9hPa WSW 4.9mph /  7.9km/h 12.0mph /  19.3km/h 14% 0.00in /  0mm 434.0 W/m2
17:48 91.0 °F /  32.8 °C 35.2 °F /  1.8 °C 30.12in /  1019.9hPa WSW 8.1mph /  13km/h 11.0mph /  17.7km/h 14% 0.00in /  0mm 415.0 W/m2
17:53 90.7 °F /  32.6 °C 34.9 °F /  1.6 °C 30.12in /  1019.9hPa West 4.9mph /  7.9km/h 10.0mph /  16.1km/h 14% 0.00in /  0mm 387.0 W/m2
17:58 90.7 °F /  32.6 °C 34.9 °F /  1.6 °C 30.12in /  1019.9hPa WSW 4.9mph /  7.9km/h 9.0mph /  14.5km/h 14% 0.00in /  0mm 364.0 W/m2
18:03 90.3 °F /  32.4 °C 34.7 °F /  1.5 °C 30.12in /  1019.9hPa WNW 2.0mph /  3.2km/h 13.0mph /  20.9km/h 14% 0.00in /  0mm 332.0 W/m2
18:08 89.8 °F /  32.1 °C 34.2 °F /  1.2 °C 30.12in /  1019.9hPa WSW 2.9mph /  4.7km/h 14.0mph /  22.5km/h 14% 0.00in /  0mm 309.0 W/m2
18:13 89.1 °F /  31.7 °C 35.4 °F /  1.9 °C 30.12in /  1019.9hPa WSW 10.1mph /  16.3km/h 14.0mph /  22.5km/h 15% 0.00in /  0mm 290.0 W/m2
18:18 88.9 °F /  31.6 °C 35.2 °F /  1.8 °C 30.12in /  1019.9hPa WSW 4.0mph /  6.4km/h 13.0mph /  20.9km/h 15% 0.00in /  0mm 269.0 W/m2
18:26 88.9 °F /  31.6 °C 35.2 °F /  1.8 °C 30.13in /  1020.2hPa WSW 10.1mph /  16.3km/h 10.1mph /  16.3km/h 15% 0.00in /  0mm 237.0 W/m2
18:35 88.5 °F /  31.4 °C 35.1 °F /  1.7 °C 30.13in /  1020.2hPa West 4.9mph /  7.9km/h 9.0mph /  14.5km/h 15% 0.00in /  0mm 199.0 W/m2
18:40 88.2 °F /  31.2 °C 34.7 °F /  1.5 °C 30.13in /  1020.2hPa WSW 6.9mph /  11.1km/h 10.0mph /  16.1km/h 15% 0.00in /  0mm 178.0 W/m2
18:46 87.6 °F /  30.9 °C 34.3 °F /  1.3 °C 30.13in /  1020.2hPa SW 8.1mph /  13km/h 13.0mph /  20.9km/h 15% 0.00in /  0mm 121.0 W/m2
18:51 87.1 °F /  30.6 °C 35.4 °F /  1.9 °C 30.13in /  1020.2hPa West 6.0mph /  9.7km/h 8.0mph /  12.9km/h 16% 0.00in /  0mm 32.0 W/m2
18:52 86.9 °F /  30.5 °C 35.2 °F /  1.8 °C 30.13in /  1020.2hPa WNW 4.0mph /  6.4km/h 9.0mph /  14.5km/h 16% 0.00in /  0mm 30.0 W/m2
18:58 86.4 °F /  30.2 °C 34.9 °F /  1.6 °C 30.14in /  1020.5hPa SW 2.0mph /  3.2km/h 7.0mph /  11.3km/h 16% 0.00in /  0mm 28.0 W/m2
19:05 85.6 °F /  29.8 °C 35.8 °F /  2.1 °C 30.14in /  1020.5hPa SW 4.9mph /  7.9km/h 11.0mph /  17.7km/h 17% 0.00in /  0mm 25.0 W/m2
19:10 85.3 °F /  29.6 °C 35.6 °F /  2 °C 30.14in /  1020.5hPa SSW 4.9mph /  7.9km/h 10.0mph /  16.1km/h 17% 0.00in /  0mm 21.0 W/m2
19:17 84.7 °F /  29.3 °C 36.5 °F /  2.5 °C 30.14in /  1020.5hPa WSW 0.9mph /  1.4km/h 6.0mph /  9.7km/h 18% 0.00in /  0mm 16.0 W/m2
19:23 84.4 °F /  29.1 °C 36.3 °F /  2.4 °C 30.15in /  1020.9hPa WSW 4.0mph /  6.4km/h 8.0mph /  12.9km/h 18% 0.00in /  0mm 12.0 W/m2
19:29 83.8 °F /  28.8 °C 37.2 °F /  2.9 °C 30.15in /  1020.9hPa WSW 11.0mph /  17.7km/h 11.0mph /  17.7km/h 19% 0.00in /  0mm 11.0 W/m2
19:33 83.5 °F /  28.6 °C 38.1 °F /  3.4 °C 30.15in /  1020.9hPa SW 4.0mph /  6.4km/h 12.0mph /  19.3km/h 20% 0.00in /  0mm 7.0 W/m2
19:34 83.5 °F /  28.6 °C 38.1 °F /  3.4 °C 30.15in /  1020.9hPa South 8.9mph /  14.3km/h 11.0mph /  17.7km/h 20% 0.00in /  0mm 7.0 W/m2
19:40 82.9 °F /  28.3 °C 39.0 °F /  3.9 °C 30.15in /  1020.9hPa SW 2.0mph /  3.2km/h 11.0mph /  17.7km/h 21% 0.00in /  0mm 5.0 W/m2
19:45 82.6 °F /  28.1 °C 38.7 °F /  3.7 °C 30.16in /  1021.2hPa WSW 8.9mph /  14.3km/h 9.0mph /  14.5km/h 21% 0.00in /  0mm 0.0 W/m2
19:50 82.2 °F /  27.9 °C 39.6 °F /  4.2 °C 30.16in /  1021.2hPa SSW 6.9mph /  11.1km/h 11.0mph /  17.7km/h 22% 0.00in /  0mm 0.0 W/m2
19:55 81.7 °F /  27.6 °C 40.3 °F /  4.6 °C 30.17in /  1021.6hPa SSW 2.9mph /  4.7km/h 9.0mph /  14.5km/h 23% 0.00in /  0mm 0.0 W/m2
20:00 81.3 °F /  27.4 °C 39.9 °F /  4.4 °C 30.17in /  1021.6hPa SW 6.9mph /  11.1km/h 10.0mph /  16.1km/h 23% 0.00in /  0mm 0.0 W/m2
20:06 80.8 °F /  27.1 °C 40.6 °F /  4.8 °C 30.17in /  1021.6hPa SW 4.9mph /  7.9km/h 7.0mph /  11.3km/h 24% 0.00in /  0mm 0.0 W/m2
20:08 80.8 °F /  27.1 °C 40.6 °F /  4.8 °C 30.17in /  1021.6hPa West 2.9mph /  4.7km/h 10.0mph /  16.1km/h 24% 0.00in /  0mm 0.0 W/m2
20:13 80.2 °F /  26.8 °C 40.1 °F /  4.5 °C 30.17in /  1021.6hPa WSW 4.0mph /  6.4km/h 9.0mph /  14.5km/h 24% 0.00in /  0mm 0.0 W/m2
20:23 79.5 °F /  26.4 °C 40.6 °F /  4.8 °C 30.17in /  1021.6hPa WSW 4.9mph /  7.9km/h 9.0mph /  14.5km/h 25% 0.00in /  0mm 0.0 W/m2
20:28 79.2 °F /  26.2 °C 40.3 °F /  4.6 °C 30.17in /  1021.6hPa WSW 2.0mph /  3.2km/h 8.0mph /  12.9km/h 25% 0.00in /  0mm 0.0 W/m2
20:33 79.0 °F /  26.1 °C 40.1 °F /  4.5 °C 30.17in /  1021.6hPa WSW 8.9mph /  14.3km/h 14.0mph /  22.5km/h 25% 0.00in /  0mm 0.0 W/m2
20:38 78.6 °F /  25.9 °C 39.9 °F /  4.4 °C 30.18in /  1021.9hPa SSW 6.9mph /  11.1km/h 9.0mph /  14.5km/h 25% 0.00in /  0mm 0.0 W/m2
20:39 78.6 °F /  25.9 °C 40.8 °F /  4.9 °C 30.18in /  1021.9hPa SW 4.0mph /  6.4km/h 9.0mph /  14.5km/h 26% 0.00in /  0mm 0.0 W/m2
20:47 78.3 °F /  25.7 °C 40.6 °F /  4.8 °C 30.18in /  1021.9hPa SW 2.9mph /  4.7km/h 8.0mph /  12.9km/h 26% 0.00in /  0mm 0.0 W/m2
20:52 78.3 °F /  25.7 °C 40.6 °F /  4.8 °C 30.18in /  1021.9hPa Calm   6.0mph /  9.7km/h 26% 0.00in /  0mm 0.0 W/m2
20:57 78.1 °F /  25.6 °C 40.5 °F /  4.7 °C 30.19in /  1022.2hPa SSE 2.9mph /  4.7km/h 5.0mph /  8km/h 26% 0.00in /  0mm 0.0 W/m2
21:04 77.5 °F /  25.3 °C 41.0 °F /  5 °C 30.19in /  1022.2hPa Calm   8.0mph /  12.9km/h 27% 0.00in /  0mm 0.0 W/m2
21:10 77.4 °F /  25.2 °C 40.8 °F /  4.9 °C 30.19in /  1022.2hPa Calm   7.0mph /  11.3km/h 27% 0.00in /  0mm 0.0 W/m2
21:16 77.2 °F /  25.1 °C 40.6 °F /  4.8 °C 30.19in /  1022.2hPa WSW 2.0mph /  3.2km/h 5.0mph /  8km/h 27% 0.00in /  0mm 0.0 W/m2
21:22 76.8 °F /  24.9 °C 40.3 °F /  4.6 °C 30.19in /  1022.2hPa SSW 2.9mph /  4.7km/h 8.0mph /  12.9km/h 27% 0.00in /  0mm 0.0 W/m2
21:28 76.5 °F /  24.7 °C 41.0 °F /  5 °C 30.19in /  1022.2hPa SSW 2.9mph /  4.7km/h 4.0mph /  6.4km/h 28% 0.00in /  0mm 0.0 W/m2
21:34 76.3 °F /  24.6 °C 40.8 °F /  4.9 °C 30.19in /  1022.2hPa SSW 2.9mph /  4.7km/h 7.0mph /  11.3km/h 28% 0.00in /  0mm 0.0 W/m2
21:40 75.9 °F /  24.4 °C 40.5 °F /  4.7 °C 30.19in /  1022.2hPa SSW 2.9mph /  4.7km/h 7.0mph /  11.3km/h 28% 0.00in /  0mm 0.0 W/m2
21:45 75.7 °F /  24.3 °C 41.2 °F /  5.1 °C 30.19in /  1022.2hPa SW 2.9mph /  4.7km/h 5.0mph /  8km/h 29% 0.00in /  0mm 0.0 W/m2
21:55 75.6 °F /  24.2 °C 41.0 °F /  5 °C 30.20in /  1022.6hPa SW 4.0mph /  6.4km/h 9.0mph /  14.5km/h 29% 0.00in /  0mm 0.0 W/m2
21:58 75.6 °F /  24.2 °C 41.0 °F /  5 °C 30.20in /  1022.6hPa WSW 2.0mph /  3.2km/h 5.0mph /  8km/h 29% 0.00in /  0mm 0.0 W/m2
22:00 75.4 °F /  24.1 °C 41.0 °F /  5 °C 30.20in /  1022.6hPa West 6.0mph /  9.7km/h 7.0mph /  11.3km/h 29% 0.00in /  0mm 0.0 W/m2
22:03 75.4 °F /  24.1 °C 41.7 °F /  5.4 °C 30.20in /  1022.6hPa Calm   12.0mph /  19.3km/h 30% 0.00in /  0mm 0.0 W/m2
22:06 75.2 °F /  24 °C 41.7 °F /  5.4 °C 30.20in /  1022.6hPa SSW 0.9mph /  1.4km/h 3.0mph /  4.8km/h 30% 0.00in /  0mm 0.0 W/m2
22:08 75.0 °F /  23.9 °C 41.5 °F /  5.3 °C 30.20in /  1022.6hPa West 0.9mph /  1.4km/h 6.0mph /  9.7km/h 30% 0.00in /  0mm 0.0 W/m2
22:13 74.8 °F /  23.8 °C 41.4 °F /  5.2 °C 30.20in /  1022.6hPa SW 2.0mph /  3.2km/h 4.0mph /  6.4km/h 30% 0.00in /  0mm 0.0 W/m2
22:18 74.8 °F /  23.8 °C 41.4 °F /  5.2 °C 30.20in /  1022.6hPa Calm   4.0mph /  6.4km/h 30% 0.00in /  0mm 0.0 W/m2
22:23 74.7 °F /  23.7 °C 41.2 °F /  5.1 °C 30.21in /  1022.9hPa Calm     30% 0.00in /  0mm 0.0 W/m2
22:28 74.5 °F /  23.6 °C 41.0 °F /  5 °C 30.21in /  1022.9hPa Calm     30% 0.00in /  0mm 0.0 W/m2
22:33 74.5 °F /  23.6 °C 41.0 °F /  5 °C 30.21in /  1022.9hPa Calm   2.0mph /  3.2km/h 30% 0.00in /  0mm 0.0 W/m2
22:38 74.1 °F /  23.4 °C 40.6 °F /  4.8 °C 30.21in /  1022.9hPa Calm   1.0mph /  1.6km/h 30% 0.00in /  0mm 0.0 W/m2
22:43 73.8 °F /  23.2 °C 40.5 °F /  4.7 °C 30.21in /  1022.9hPa Calm     30% 0.00in /  0mm 0.0 W/m2
22:47 73.6 °F /  23.1 °C 41.0 °F /  5 °C 30.21in /  1022.9hPa Calm   1.0mph /  1.6km/h 31% 0.00in /  0mm 0.0 W/m2
22:48 73.6 °F /  23.1 °C 41.0 °F /  5 °C 30.21in /  1022.9hPa Calm   1.0mph /  1.6km/h 31% 0.00in /  0mm 0.0 W/m2
22:53 73.2 °F /  22.9 °C 40.8 °F /  4.9 °C 30.21in /  1022.9hPa Calm   2.0mph /  3.2km/h 31% 0.00in /  0mm 0.0 W/m2
22:58 72.9 °F /  22.7 °C 40.5 °F /  4.7 °C 30.22in /  1023.2hPa Calm   1.0mph /  1.6km/h 31% 0.00in /  0mm 0.0 W/m2
23:03 72.7 °F /  22.6 °C 41.2 °F /  5.1 °C 30.22in /  1023.2hPa SW 0.9mph /  1.4km/h 1.0mph /  1.6km/h 32% 0.00in /  0mm 0.0 W/m2
23:08 72.3 °F /  22.4 °C 39.9 °F /  4.4 °C 30.22in /  1023.2hPa Calm     31% 0.00in /  0mm 0.0 W/m2
23:13 72.3 °F /  22.4 °C 40.8 °F /  4.9 °C 30.22in /  1023.2hPa Calm   2.0mph /  3.2km/h 32% 0.00in /  0mm 0.0 W/m2
23:18 72.1 °F /  22.3 °C 41.4 °F /  5.2 °C 30.22in /  1023.2hPa Calm   1.0mph /  1.6km/h 33% 0.00in /  0mm 0.0 W/m2
23:23 72.0 °F /  22.2 °C 41.4 °F /  5.2 °C 29.75in /  1007.3hPa Calm     33% 0.00in /  0mm 0.0 W/m2
23:28 71.8 °F /  22.1 °C 41.9 °F /  5.5 °C 30.22in /  1023.2hPa Calm     34% 0.00in /  0mm 0.0 W/m2
23:39 71.4 °F /  21.9 °C 40.8 °F /  4.9 °C 30.22in /  1023.2hPa SE 4.0mph /  6.4km/h 8.0mph /  12.9km/h 33% 0.00in /  0mm 0.0 W/m2
23:44 71.8 °F /  22.1 °C 40.3 °F /  4.6 °C 30.22in /  1023.2hPa South 4.9mph /  7.9km/h 7.0mph /  11.3km/h 32% 0.00in /  0mm 0.0 W/m2
23:49 72.0 °F /  22.2 °C 40.5 °F /  4.7 °C 30.22in /  1023.2hPa SE 0.9mph /  1.4km/h 3.0mph /  4.8km/h 32% 0.00in /  0mm 0.0 W/m2
23:54 72.1 °F /  22.3 °C 40.6 °F /  4.8 °C 30.22in /  1023.2hPa SSE 2.0mph /  3.2km/h 6.0mph /  9.7km/h 32% 0.00in /  0mm 0.0 W/m2
23:59 72.1 °F /  22.3 °C 40.6 °F /  4.8 °C 30.22in /  1023.2hPa SSE 6.0mph /  9.7km/h 6.0mph /  9.7km/h 32% 0.00in /  0mm 0.0 W/m2
Olympia, Windhoek, Namibia
Compliments of Weather Underground - 3.5 mb